Piedra, California
Current Conditions -  °F | °C
As of 12:53 PM on Friday 21 Nov 2014 (Local Time) from KFAT Reporting Station
Overcast Overcast  
Wind Chill: 54°   Ceiling: 1300
Heat Index: 54°   Visibility: 9mi
Dew Point: 48°   Wind: 8mph
Humidity: 80%   Direction: 300°WNW
Pressure: 30.11"   Gusts: NA
Location:  36.81°N, 119.38°W
Report Text: KFAT 212053Z 30007KT 9SM OVC013 12/09 A3011 RMK AO2 SLP197 T01220089 56007
Loading
Personal Weather Stations






























Interactive Weather Map New forecast layout! Learn more

10-Day Weather Forecast

Advertisements
Track Severe Weather on mobile